createdAt,value
2022-07-29T00:01:39.182Z,100754.63
2022-07-29T00:04:02.394Z,100749.56
2022-07-29T00:06:25.553Z,100753.00
2022-07-29T00:08:48.753Z,100749.59
2022-07-29T00:11:11.859Z,100744.28
2022-07-29T00:13:35.061Z,100756.41
2022-07-29T00:15:58.067Z,100741.34
2022-07-29T00:18:29.100Z,100747.91
2022-07-29T00:20:53.494Z,100744.25
2022-07-29T00:23:16.554Z,100745.63
2022-07-29T00:25:39.650Z,100743.94
2022-07-29T00:28:02.691Z,100754.69
2022-07-29T00:30:25.761Z,100757.78
2022-07-29T00:32:48.899Z,100752.88
2022-07-29T00:35:30.985Z,100753.63
2022-07-29T00:37:54.084Z,100755.47
2022-07-29T00:40:17.075Z,100749.88
2022-07-29T00:42:45.999Z,100751.41
2022-07-29T00:45:09.218Z,100750.81
2022-07-29T00:47:32.756Z,100748.75
2022-07-29T00:49:55.769Z,100736.41
2022-07-29T00:52:20.465Z,100743.28
2022-07-29T00:54:44.648Z,100738.84
2022-07-29T00:57:08.291Z,100742.34
2022-07-29T00:59:35.091Z,100737.56
2022-07-29T01:01:58.763Z,100735.94
2022-07-29T01:04:21.866Z,100738.59
2022-07-29T01:06:45.201Z,100742.06
2022-07-29T01:09:09.753Z,100745.13
2022-07-29T01:11:32.795Z,100744.44
2022-07-29T01:13:55.858Z,100738.66
2022-07-29T01:16:20.649Z,100744.41
2022-07-29T01:18:44.416Z,100746.47
2022-07-29T01:21:16.060Z,100742.41
2022-07-29T01:23:44.418Z,100732.34
2022-07-29T01:26:14.954Z,100724.56
2022-07-29T01:28:54.070Z,100731.06
2022-07-29T01:31:18.363Z,100730.53
2022-07-29T01:33:52.112Z,100728.59
2022-07-29T01:36:15.533Z,100733.25
2022-07-29T01:38:38.549Z,100730.13
2022-07-29T01:41:08.046Z,100732.78
2022-07-29T01:43:33.458Z,100727.00
2022-07-29T01:45:58.828Z,100731.28
2022-07-29T01:48:22.274Z,100727.41
2022-07-29T01:50:48.833Z,100723.78
2022-07-29T01:53:11.984Z,100719.19
2022-07-29T01:55:36.482Z,100723.56
2022-07-29T01:57:59.931Z,100716.28
2022-07-29T02:00:22.959Z,100704.25
2022-07-29T02:02:48.072Z,100717.06
2022-07-29T02:05:11.931Z,100715.44
2022-07-29T02:07:35.210Z,100718.25
2022-07-29T02:09:58.231Z,100720.69
2022-07-29T02:12:21.300Z,100716.78
2022-07-29T02:14:44.957Z,100718.47
2022-07-29T02:17:07.953Z,100721.63
2022-07-29T02:19:33.237Z,100713.00
2022-07-29T02:21:56.891Z,100714.47
2022-07-29T02:24:19.959Z,100715.47
2022-07-29T02:26:43.304Z,100711.88
2022-07-29T02:29:06.369Z,100713.94
2022-07-29T02:31:31.152Z,100710.91
2022-07-29T02:33:54.738Z,100714.25
2022-07-29T02:36:19.151Z,100706.97
2022-07-29T02:38:54.434Z,100716.75
2022-07-29T02:41:22.892Z,100717.94
2022-07-29T02:43:46.014Z,100715.75
2022-07-29T02:46:14.948Z,100723.25
2022-07-29T02:48:53.786Z,100728.25
2022-07-29T02:51:43.370Z,100726.25
2022-07-29T02:54:04.471Z,100723.25
2022-07-29T02:56:27.791Z,100730.75
2022-07-29T02:58:51.822Z,100724.91
2022-07-29T03:01:19.444Z,100728.72
2022-07-29T03:03:44.626Z,100730.44
2022-07-29T03:06:09.488Z,100721.44
2022-07-29T03:08:51.846Z,100730.94
2022-07-29T03:11:16.248Z,100736.06
2022-07-29T03:13:39.296Z,100733.63
2022-07-29T03:16:02.382Z,100739.25
2022-07-29T03:18:25.576Z,100741.09
2022-07-29T03:20:48.557Z,100740.06
2022-07-29T03:23:11.639Z,100738.22
2022-07-29T03:25:34.832Z,100744.03
2022-07-29T03:27:59.279Z,100750.69
2022-07-29T03:30:22.710Z,100752.16
2022-07-29T03:32:46.313Z,100748.81
2022-07-29T03:35:09.523Z,100750.06
2022-07-29T03:37:32.633Z,100753.59
2022-07-29T03:39:56.482Z,100753.19
2022-07-29T03:42:19.500Z,100758.59
2022-07-29T03:44:44.292Z,100753.56
2022-07-29T03:47:07.411Z,100758.06
2022-07-29T03:49:30.478Z,100760.16
2022-07-29T03:51:53.620Z,100768.25
2022-07-29T03:54:16.982Z,100765.22
2022-07-29T03:56:40.545Z,100762.38
2022-07-29T03:59:03.626Z,100763.16
2022-07-29T04:01:28.100Z,100762.84
2022-07-29T04:03:51.321Z,100769.50
2022-07-29T04:06:14.337Z,100771.38
2022-07-29T04:08:37.346Z,100764.91
2022-07-29T04:11:00.377Z,100764.13
2022-07-29T04:13:23.545Z,100771.13
2022-07-29T04:15:46.643Z,100770.97
2022-07-29T04:18:11.137Z,100767.03
2022-07-29T04:20:34.189Z,100761.38
2022-07-29T04:22:57.188Z,100758.03
2022-07-29T04:25:20.291Z,100761.75
2022-07-29T04:28:01.192Z,100754.31
2022-07-29T04:30:24.290Z,100755.66
2022-07-29T04:32:47.301Z,100762.97
2022-07-29T04:35:11.862Z,100756.03
2022-07-29T04:37:34.870Z,100757.75
2022-07-29T04:39:57.937Z,100759.06
2022-07-29T04:42:27.690Z,100756.31
2022-07-29T04:44:51.102Z,100757.06
2022-07-29T04:47:14.935Z,100756.31
2022-07-29T04:49:39.652Z,100762.06
2022-07-29T04:52:04.066Z,100758.84
2022-07-29T04:54:27.147Z,100758.31
2022-07-29T04:56:50.134Z,100758.31
2022-07-29T04:59:13.227Z,100757.94
2022-07-29T05:01:36.372Z,100755.38
2022-07-29T05:04:00.737Z,100753.09
2022-07-29T05:06:24.049Z,100753.25
2022-07-29T05:08:48.515Z,100745.59
2022-07-29T05:11:13.051Z,100745.16
2022-07-29T05:13:45.832Z,100741.81
2022-07-29T05:16:10.156Z,100748.91
2022-07-29T05:18:33.202Z,100747.91
2022-07-29T05:20:56.287Z,100746.22
2022-07-29T05:23:19.348Z,100749.09
2022-07-29T05:25:44.935Z,100753.81
2022-07-29T05:28:08.132Z,100752.63
2022-07-29T05:30:31.248Z,100746.03
2022-07-29T05:32:54.355Z,100745.66
2022-07-29T05:35:17.446Z,100742.00
2022-07-29T05:37:40.468Z,100752.13
2022-07-29T05:40:03.575Z,100749.25
2022-07-29T05:42:27.975Z,100748.91
2022-07-29T05:44:51.007Z,100744.97
2022-07-29T05:47:14.020Z,100744.63
2022-07-29T05:49:37.231Z,100747.84
2022-07-29T05:52:00.325Z,100751.25
2022-07-29T05:54:23.361Z,100752.75
2022-07-29T05:56:46.390Z,100755.47
2022-07-29T05:59:17.967Z,100759.03
2022-07-29T06:01:42.681Z,100762.88
2022-07-29T06:04:05.950Z,100767.31
2022-07-29T06:06:29.118Z,100760.84
2022-07-29T06:08:52.177Z,100755.94
2022-07-29T06:11:15.173Z,100764.06
2022-07-29T06:13:38.255Z,100770.50
2022-07-29T06:16:02.739Z,100772.91
2022-07-29T06:18:25.854Z,100762.38
2022-07-29T06:20:48.866Z,100770.34
2022-07-29T06:23:11.878Z,100768.63
2022-07-29T06:25:36.432Z,100767.44
2022-07-29T06:27:59.618Z,100770.16
2022-07-29T06:30:23.036Z,100763.72
2022-07-29T06:32:47.731Z,100768.97
2022-07-29T06:35:39.166Z,100763.56
2022-07-29T06:37:55.336Z,100758.13
2022-07-29T06:40:42.468Z,100762.38
2022-07-29T06:43:05.479Z,100761.69
2022-07-29T06:45:30.309Z,100764.22
2022-07-29T06:47:54.818Z,100769.47
2022-07-29T06:50:17.801Z,100768.28
2022-07-29T06:52:41.848Z,100768.09
2022-07-29T06:55:04.979Z,100768.09
2022-07-29T06:57:29.172Z,100764.19
2022-07-29T06:59:52.205Z,100759.59
2022-07-29T07:02:15.351Z,100760.63
2022-07-29T07:04:39.949Z,100749.59
2022-07-29T07:07:02.975Z,100753.84
2022-07-29T07:09:26.062Z,100764.53
2022-07-29T07:12:03.437Z,100768.06
2022-07-29T07:14:27.659Z,100763.66
2022-07-29T07:16:50.876Z,100760.78
2022-07-29T07:19:15.723Z,100763.50
2022-07-29T07:21:40.214Z,100765.84
2022-07-29T07:24:03.230Z,100763.50
2022-07-29T07:26:26.317Z,100766.84
2022-07-29T07:28:49.343Z,100769.56
2022-07-29T07:31:12.457Z,100774.63
2022-07-29T07:33:35.419Z,100775.50
2022-07-29T07:35:58.529Z,100771.94
2022-07-29T07:38:22.906Z,100774.00
2022-07-29T07:40:47.422Z,100774.00
2022-07-29T07:43:10.606Z,100789.06
2022-07-29T07:45:34.831Z,100783.81
2022-07-29T07:47:57.992Z,100790.25
2022-07-29T07:50:21.019Z,100788.38
2022-07-29T07:52:50.927Z,100784.63
2022-07-29T07:55:15.361Z,100784.47
2022-07-29T07:57:38.479Z,100785.31
2022-07-29T08:00:01.459Z,100778.88
2022-07-29T08:02:24.565Z,100778.03
2022-07-29T08:04:47.644Z,100780.56
2022-07-29T08:07:10.799Z,100774.28
2022-07-29T08:09:34.013Z,100770.19
2022-07-29T08:11:58.636Z,100771.22
2022-07-29T08:14:21.651Z,100773.78
2022-07-29T08:16:44.704Z,100775.63
2022-07-29T08:19:07.773Z,100774.28
2022-07-29T08:21:30.793Z,100777.28
2022-07-29T08:24:14.643Z,100771.84
2022-07-29T08:26:37.718Z,100772.88
2022-07-29T08:29:02.153Z,100776.28
2022-07-29T08:31:25.313Z,100769.63
2022-07-29T08:33:48.373Z,100765.06
2022-07-29T08:36:11.494Z,100765.91
2022-07-29T08:38:34.681Z,100777.97
2022-07-29T08:40:57.772Z,100778.44
2022-07-29T08:43:20.761Z,100768.44
2022-07-29T08:45:48.235Z,100770.31
2022-07-29T08:48:11.577Z,100763.84
2022-07-29T08:50:34.661Z,100766.91
2022-07-29T08:52:59.854Z,100763.00
2022-07-29T08:55:23.242Z,100764.22
2022-07-29T08:57:51.931Z,100754.03
2022-07-29T09:00:20.361Z,100756.22
2022-07-29T09:02:46.684Z,100765.38
2022-07-29T09:05:10.742Z,100756.41
2022-07-29T09:07:34.795Z,100756.41
2022-07-29T09:09:58.443Z,100757.03
2022-07-29T09:12:28.646Z,100757.91
2022-07-29T09:14:52.728Z,100756.72
2022-07-29T09:17:17.900Z,100754.69
2022-07-29T09:19:45.356Z,100744.88
2022-07-29T09:22:10.414Z,100756.72
2022-07-29T09:24:40.570Z,100750.09
2022-07-29T09:27:03.798Z,100753.66
2022-07-29T09:29:31.073Z,100756.22
2022-07-29T09:31:56.590Z,100743.28
2022-07-29T09:34:23.337Z,100746.84
2022-07-29T09:36:48.514Z,100742.47
2022-07-29T09:39:11.573Z,100742.47
2022-07-29T09:41:45.975Z,100740.59
2022-07-29T09:44:09.002Z,100750.91
2022-07-29T09:46:32.133Z,100751.75
2022-07-29T09:49:13.641Z,100746.34
2022-07-29T09:51:38.427Z,100742.94
2022-07-29T09:54:05.590Z,100750.25
2022-07-29T09:56:40.243Z,100758.38
2022-07-29T09:59:07.231Z,100751.63
2022-07-29T10:01:30.385Z,100746.88
2022-07-29T10:03:53.667Z,100744.16
2022-07-29T10:06:16.697Z,100744.72
2022-07-29T10:08:39.781Z,100745.38
2022-07-29T10:11:12.185Z,100748.91
2022-07-29T10:13:35.241Z,100742.50
2022-07-29T10:15:58.292Z,100752.31
2022-07-29T10:18:21.492Z,100752.81
2022-07-29T10:20:44.563Z,100754.69
2022-07-29T10:23:07.625Z,100760.59
2022-07-29T10:25:30.740Z,100758.72
2022-07-29T10:27:55.904Z,100759.75
2022-07-29T10:30:18.993Z,100751.63
2022-07-29T10:32:54.039Z,100753.78
2022-07-29T10:35:20.302Z,100742.94
2022-07-29T10:37:48.769Z,100746.69
2022-07-29T10:40:27.038Z,100748.22
2022-07-29T10:42:51.528Z,100742.09
2022-07-29T10:45:15.932Z,100742.81
2022-07-29T10:47:39.225Z,100745.00
2022-07-29T10:50:03.827Z,100748.72
2022-07-29T10:52:30.362Z,100751.44
2022-07-29T10:54:54.627Z,100745.16
2022-07-29T10:57:21.557Z,100755.19
2022-07-29T10:59:49.056Z,100747.53
2022-07-29T11:02:41.755Z,100748.56
2022-07-29T11:05:09.467Z,100753.63
2022-07-29T11:07:45.738Z,100740.06
2022-07-29T11:10:21.887Z,100753.63
2022-07-29T11:12:50.083Z,100751.06
2022-07-29T11:15:18.226Z,100750.25
2022-07-29T11:17:59.380Z,100744.66
2022-07-29T11:20:34.250Z,100749.19
2022-07-29T11:22:59.650Z,100741.25
2022-07-29T11:25:50.265Z,100741.75
2022-07-29T11:28:11.070Z,100734.28
2022-07-29T11:30:48.769Z,100732.56
2022-07-29T11:33:54.405Z,100741.56
2022-07-29T11:36:16.763Z,100732.94
2022-07-29T11:41:24.510Z,100732.94
2022-07-29T11:43:48.463Z,100729.88
2022-07-29T11:46:14.022Z,100734.44
2022-07-29T11:48:37.039Z,100725.47
2022-07-29T11:51:01.591Z,100721.56
2022-07-29T11:53:28.971Z,100725.28
2022-07-29T11:55:58.340Z,100716.13
2022-07-29T12:01:07.371Z,100711.72
2022-07-29T12:03:32.985Z,100710.88
2022-07-29T12:05:58.698Z,100705.44
2022-07-29T12:08:22.848Z,100709.19
2022-07-29T12:10:48.011Z,100707.81
2022-07-29T12:13:12.048Z,100693.41
2022-07-29T12:15:46.098Z,100699.66
2022-07-29T12:18:13.981Z,100692.38
2022-07-29T12:20:37.016Z,100693.41
2022-07-29T12:23:00.145Z,100694.78
2022-07-29T12:25:39.030Z,100695.63
2022-07-29T12:28:06.879Z,100686.47
2022-07-29T12:30:37.274Z,100687.50
2022-07-29T12:33:01.188Z,100685.81
2022-07-29T12:35:24.333Z,100685.47
2022-07-29T12:37:49.011Z,100682.75
2022-07-29T12:40:12.415Z,100676.09
2022-07-29T12:42:35.604Z,100679.66
2022-07-29T12:45:00.068Z,100672.19
2022-07-29T12:47:24.491Z,100669.66
2022-07-29T12:49:47.815Z,100670.13
2022-07-29T12:52:26.378Z,100670.97
2022-07-29T12:54:49.420Z,100664.03
2022-07-29T12:57:20.064Z,100669.66
2022-07-29T12:59:43.424Z,100663.41
2022-07-29T13:02:08.425Z,100671.53
2022-07-29T13:04:31.811Z,100668.81
2022-07-29T13:07:00.092Z,100665.06
2022-07-29T13:09:24.524Z,100664.25
2022-07-29T13:11:48.964Z,100662.53
2022-07-29T13:14:12.486Z,100664.25
2022-07-29T13:16:35.543Z,100672.19
2022-07-29T13:19:12.644Z,100672.84
2022-07-29T13:21:35.918Z,100672.84
2022-07-29T13:23:58.905Z,100665.34
2022-07-29T13:26:22.009Z,100673.13
2022-07-29T13:28:44.989Z,100663.69
2022-07-29T13:31:08.253Z,100660.97
2022-07-29T13:33:31.314Z,100660.59
2022-07-29T13:35:56.238Z,100664.34
2022-07-29T13:38:19.238Z,100668.38
2022-07-29T13:40:42.813Z,100662.66
2022-07-29T13:43:05.786Z,100655.34
2022-07-29T13:45:29.134Z,100656.56
2022-07-29T13:47:52.343Z,100655.19
2022-07-29T13:50:15.420Z,100651.44
2022-07-29T13:52:39.834Z,100657.88
2022-07-29T13:55:02.959Z,100654.81
2022-07-29T13:57:26.073Z,100654.44
2022-07-29T13:59:53.552Z,100655.75
2022-07-29T14:02:17.164Z,100655.53
2022-07-29T14:04:40.687Z,100667.06
2022-07-29T14:07:03.998Z,100663.13
2022-07-29T14:09:28.490Z,100666.50
2022-07-29T14:11:52.374Z,100670.63
2022-07-29T14:14:15.401Z,100659.94
2022-07-29T14:16:43.063Z,100673.50
2022-07-29T14:19:11.094Z,100671.81
2022-07-29T14:21:35.585Z,100668.91
2022-07-29T14:23:59.649Z,100670.78
2022-07-29T14:26:24.610Z,100669.78
2022-07-29T14:28:47.777Z,100665.66
2022-07-29T14:31:10.766Z,100662.94
2022-07-29T14:33:33.838Z,100665.47
2022-07-29T14:35:56.917Z,100661.75
2022-07-29T14:38:24.789Z,100664.81
2022-07-29T14:40:50.883Z,100663.44
2022-07-29T14:43:15.676Z,100668.66
2022-07-29T14:45:38.885Z,100664.28
2022-07-29T14:48:02.036Z,100665.84
2022-07-29T14:50:31.565Z,100659.94
2022-07-29T14:52:55.411Z,100659.09
2022-07-29T14:55:20.148Z,100652.81
2022-07-29T14:57:43.460Z,100655.53
2022-07-29T15:00:08.789Z,100643.00
2022-07-29T15:02:59.368Z,100653.03
2022-07-29T15:05:14.990Z,100644.41
2022-07-29T15:07:37.966Z,100641.38
2022-07-29T15:10:00.898Z,100634.09
2022-07-29T15:12:24.681Z,100637.47
2022-07-29T15:14:47.699Z,100638.78
2022-07-29T15:17:12.082Z,100640.28
2022-07-29T15:19:35.522Z,100638.97
2022-07-29T15:21:59.711Z,100646.25
2022-07-29T15:24:23.017Z,100637.28
2022-07-29T15:26:46.122Z,100635.75
2022-07-29T15:29:09.173Z,100636.28
2022-07-29T15:31:32.302Z,100642.06
2022-07-29T15:33:59.440Z,100639.81
2022-07-29T15:36:51.080Z,100634.41
2022-07-29T15:39:07.467Z,100638.97
2022-07-29T15:41:30.509Z,100646.09
2022-07-29T15:43:53.530Z,100634.56
2022-07-29T15:46:39.634Z,100638.13
2022-07-29T15:49:04.229Z,100645.06
2022-07-29T15:51:27.309Z,100641.03
2022-07-29T15:53:53.519Z,100638.97
2022-07-29T15:56:16.814Z,100647.28
2022-07-29T15:58:39.902Z,100637.28
2022-07-29T16:01:02.925Z,100648.31
2022-07-29T16:03:26.062Z,100643.72
2022-07-29T16:05:50.473Z,100644.78
2022-07-29T16:08:13.518Z,100647.28
2022-07-29T16:10:36.549Z,100644.56
2022-07-29T16:12:59.666Z,100646.44
2022-07-29T16:15:22.694Z,100644.78
2022-07-29T16:17:45.710Z,100648.31
2022-07-29T16:20:09.289Z,100648.13
2022-07-29T16:22:34.994Z,100645.59
2022-07-29T16:24:58.131Z,100657.34
2022-07-29T16:27:24.803Z,100651.19
2022-07-29T16:29:50.433Z,100648.13
2022-07-29T16:32:13.504Z,100655.25
2022-07-29T16:34:36.499Z,100654.22
2022-07-29T16:36:59.832Z,100655.75
2022-07-29T16:39:24.615Z,100649.91
2022-07-29T16:41:47.755Z,100654.22
2022-07-29T16:44:10.789Z,100649.63
2022-07-29T16:46:37.295Z,100653.88
2022-07-29T16:49:02.107Z,100649.06
2022-07-29T16:51:26.116Z,100651.78
2022-07-29T16:53:50.445Z,100653.19
2022-07-29T16:56:15.000Z,100664.41
2022-07-29T16:58:40.489Z,100656.09
2022-07-29T17:01:06.709Z,100658.63
2022-07-29T17:03:29.776Z,100659.66
2022-07-29T17:05:54.340Z,100664.59
2022-07-29T17:08:17.439Z,100664.13
2022-07-29T17:10:40.530Z,100669.53
2022-07-29T17:13:04.891Z,100662.78
2022-07-29T17:15:28.036Z,100657.34
2022-07-29T17:17:55.197Z,100658.84
2022-07-29T17:20:19.427Z,100662.59
2022-07-29T17:22:43.067Z,100664.47
2022-07-29T17:25:06.610Z,100667.84
2022-07-29T17:27:29.774Z,100664.47
2022-07-29T17:29:54.245Z,100654.16
2022-07-29T17:32:17.248Z,100665.00
2022-07-29T17:34:40.468Z,100658.56
2022-07-29T17:37:03.469Z,100660.44
2022-07-29T17:39:26.587Z,100665.00
2022-07-29T17:41:49.611Z,100663.16
2022-07-29T17:44:12.671Z,100666.34
2022-07-29T17:46:37.082Z,100665.34
2022-07-29T17:49:00.213Z,100673.13
2022-07-29T17:51:23.293Z,100667.72
2022-07-29T17:53:46.429Z,100676.22
2022-07-29T17:56:09.493Z,100675.38
2022-07-29T17:58:32.801Z,100666.72
2022-07-29T18:00:55.835Z,100667.41
2022-07-29T18:03:20.335Z,100660.28
2022-07-29T18:05:43.436Z,100664.53
2022-07-29T18:08:07.553Z,100672.28
2022-07-29T18:10:30.654Z,100669.28
2022-07-29T18:12:53.704Z,100671.97
2022-07-29T18:15:16.713Z,100674.38
2022-07-29T18:17:56.949Z,100667.56
2022-07-29T18:20:22.377Z,100666.72
2022-07-29T18:22:45.437Z,100669.44
2022-07-29T18:25:08.855Z,100679.28
2022-07-29T18:27:32.057Z,100678.13
2022-07-29T18:29:55.667Z,100689.94
2022-07-29T18:32:18.675Z,100688.41
2022-07-29T18:34:51.704Z,100688.25
2022-07-29T18:37:16.077Z,100690.63
2022-07-29T18:39:39.097Z,100693.34
2022-07-29T18:42:02.110Z,100692.50
2022-07-29T18:44:25.122Z,100702.16
2022-07-29T18:46:48.400Z,100697.09
2022-07-29T18:49:11.507Z,100703.00
2022-07-29T18:51:34.615Z,100697.44
2022-07-29T18:53:59.051Z,100707.25
2022-07-29T18:56:22.276Z,100707.41
2022-07-29T18:58:45.315Z,100699.97
2022-07-29T19:01:08.439Z,100713.66
2022-07-29T19:03:31.455Z,100718.09
2022-07-29T19:05:54.486Z,100715.19
2022-07-29T19:08:17.586Z,100717.59
2022-07-29T19:10:42.370Z,100714.22
2022-07-29T19:13:06.174Z,100718.94
2022-07-29T19:15:29.258Z,100702.19
2022-07-29T19:17:52.362Z,100708.09
2022-07-29T19:20:15.641Z,100709.97
2022-07-29T19:22:38.668Z,100711.50
2022-07-29T19:25:01.688Z,100713.84
2022-07-29T19:27:26.430Z,100708.50
2022-07-29T19:29:49.699Z,100709.94
2022-07-29T19:32:13.571Z,100707.22
2022-07-29T19:35:08.310Z,100704.03
2022-07-29T19:37:31.386Z,100702.81
2022-07-29T19:39:54.389Z,100697.22
2022-07-29T19:42:17.496Z,100699.25
2022-07-29T19:44:41.878Z,100695.72
2022-07-29T19:47:05.222Z,100697.38
2022-07-29T19:49:28.290Z,100698.78
2022-07-29T19:51:53.971Z,100697.59
2022-07-29T19:54:18.304Z,100697.59
2022-07-29T19:56:42.089Z,100698.41
2022-07-29T19:59:05.579Z,100697.09
2022-07-29T20:01:33.151Z,100701.69
2022-07-29T20:03:56.217Z,100705.59
2022-07-29T20:06:19.244Z,100707.59
2022-07-29T20:08:42.242Z,100699.94
2022-07-29T20:11:05.286Z,100704.19
2022-07-29T20:13:28.310Z,100695.59
2022-07-29T20:15:51.501Z,100702.31
2022-07-29T20:18:16.433Z,100705.91
2022-07-29T20:20:39.661Z,100710.81
2022-07-29T20:23:03.748Z,100709.22
2022-07-29T20:25:26.835Z,100710.91
2022-07-29T20:27:52.286Z,100717.00
2022-07-29T20:30:15.367Z,100716.00
2022-07-29T20:32:41.001Z,100716.31
2022-07-29T20:35:05.703Z,100712.22
2022-07-29T20:37:28.697Z,100714.69
2022-07-29T20:39:51.794Z,100722.56
2022-07-29T20:42:14.812Z,100720.41
2022-07-29T20:44:37.958Z,100724.22
2022-07-29T20:47:01.332Z,100715.88
2022-07-29T20:49:24.673Z,100716.84
2022-07-29T20:51:49.148Z,100708.16
2022-07-29T20:54:12.210Z,100712.47
2022-07-29T20:56:35.235Z,100710.44
2022-07-29T20:58:58.210Z,100710.59
2022-07-29T21:01:21.320Z,100711.81
2022-07-29T21:03:44.398Z,100714.50
2022-07-29T21:06:09.092Z,100717.16
2022-07-29T21:08:33.536Z,100722.25
2022-07-29T21:10:56.570Z,100722.72
2022-07-29T21:13:20.534Z,100724.38
2022-07-29T21:15:46.383Z,100723.72
2022-07-29T21:18:26.768Z,100717.34
2022-07-29T21:20:49.781Z,100717.72
2022-07-29T21:23:12.868Z,100716.56
2022-07-29T21:25:37.246Z,100711.00
2022-07-29T21:28:17.485Z,100713.81
2022-07-29T21:30:40.547Z,100712.13
2022-07-29T21:33:03.645Z,100697.13
2022-07-29T21:35:35.971Z,100704.28
2022-07-29T21:38:09.789Z,100697.94
2022-07-29T21:40:32.954Z,100708.03
2022-07-29T21:42:57.382Z,100701.91
2022-07-29T21:45:20.361Z,100704.06
2022-07-29T21:47:43.445Z,100694.28
2022-07-29T21:50:06.833Z,100692.75
2022-07-29T21:52:29.935Z,100691.78
2022-07-29T21:54:53.110Z,100691.63
2022-07-29T21:57:16.180Z,100688.25
2022-07-29T21:59:40.718Z,100692.44
2022-07-29T22:02:03.706Z,100683.56
2022-07-29T22:04:26.834Z,100693.78
2022-07-29T22:06:49.879Z,100693.03
2022-07-29T22:09:12.886Z,100696.22
2022-07-29T22:11:36.986Z,100694.97
2022-07-29T22:13:59.996Z,100683.03
2022-07-29T22:16:24.448Z,100679.34
2022-07-29T22:18:48.366Z,100679.34
2022-07-29T22:21:11.396Z,100678.50
2022-07-29T22:23:34.469Z,100684.75
2022-07-29T22:25:57.465Z,100683.91
2022-07-29T22:28:20.486Z,100682.59
2022-07-29T22:30:43.641Z,100680.56
2022-07-29T22:33:08.072Z,100680.91
2022-07-29T22:35:31.227Z,100676.31
2022-07-29T22:37:54.284Z,100679.53
2022-07-29T22:40:17.280Z,100675.31
2022-07-29T22:42:40.930Z,100678.53
2022-07-29T22:45:04.304Z,100686.81
2022-07-29T22:47:45.912Z,100686.09
2022-07-29T22:50:11.878Z,100690.41
2022-07-29T22:52:34.962Z,100680.94
2022-07-29T22:54:57.947Z,100685.03
2022-07-29T22:57:21.018Z,100680.78
2022-07-29T22:59:44.029Z,100679.06
2022-07-29T23:02:07.127Z,100683.72
2022-07-29T23:04:30.161Z,100675.88
2022-07-29T23:06:54.645Z,100678.25
2022-07-29T23:09:17.635Z,100676.56
2022-07-29T23:11:40.819Z,100671.34
2022-07-29T23:14:03.795Z,100669.03
2022-07-29T23:16:27.256Z,100670.38
2022-07-29T23:18:50.443Z,100669.53
2022-07-29T23:21:15.102Z,100667.06
2022-07-29T23:23:39.470Z,100671.75
2022-07-29T23:26:02.622Z,100673.38
2022-07-29T23:28:25.672Z,100660.88
2022-07-29T23:30:48.790Z,100661.47
2022-07-29T23:33:11.797Z,100664.81
2022-07-29T23:35:34.892Z,100665.66
2022-07-29T23:37:57.914Z,100670.91
2022-07-29T23:40:22.383Z,100664.66
2022-07-29T23:42:45.400Z,100653.41
2022-07-29T23:45:08.949Z,100654.78
2022-07-29T23:47:32.110Z,100651.47
2022-07-29T23:49:55.070Z,100644.56
2022-07-29T23:52:18.277Z,100651.66
2022-07-29T23:54:41.292Z,100646.44
2022-07-29T23:57:05.823Z,100655.63
2022-07-29T23:59:28.870Z,100647.28
